NCAR-RAP Real-Time Weather Data

Output produced by METARs form (23 February 2020  01:47 UTC)
found at http://weather.rap.ucar.edu/surface/
 
KABE 230051Z 25004KT 10SM CLR 04/M13 A3020 RMK AO2 SLP229 T00391133
KABE 222351Z 22007KT 10SM CLR 03/M13 A3019 RMK AO2 SLP226 T00331133 10122 20033 53006
KABE 222251Z AUTO 23008KT 10SM CLR 07/M14 A3017 RMK AO2 SLP220 T00671139